createdAt,value
2022-09-17T00:01:20.798Z,83.25
2022-09-17T00:03:49.813Z,83.13
2022-09-17T00:06:16.394Z,83.09
2022-09-17T00:08:42.997Z,83.33
2022-09-17T00:11:11.488Z,83.30
2022-09-17T00:13:40.341Z,83.29
2022-09-17T00:16:07.089Z,83.13
2022-09-17T00:18:33.776Z,83.39
2022-09-17T00:21:00.290Z,83.39
2022-09-17T00:23:26.957Z,83.43
2022-09-17T00:25:53.533Z,83.20
2022-09-17T00:28:20.102Z,83.24
2022-09-17T00:30:48.097Z,83.28
2022-09-17T00:33:16.506Z,83.22
2022-09-17T00:35:43.645Z,83.46
2022-09-17T00:38:10.678Z,83.18
2022-09-17T00:40:38.098Z,83.43
2022-09-17T00:43:05.315Z,83.23
2022-09-17T00:45:32.385Z,83.10
2022-09-17T00:48:02.327Z,83.34
2022-09-17T00:50:34.709Z,83.36
2022-09-17T00:53:05.802Z,83.31
2022-09-17T00:55:36.343Z,83.05
2022-09-17T00:58:05.904Z,82.97
2022-09-17T01:00:32.991Z,83.31
2022-09-17T01:03:01.429Z,82.94
2022-09-17T01:05:33.968Z,83.06
2022-09-17T01:08:21.869Z,82.91
2022-09-17T01:11:19.342Z,83.31
2022-09-17T01:13:57.661Z,82.97
2022-09-17T01:16:34.054Z,82.95
2022-09-17T01:19:21.902Z,82.88
2022-09-17T01:21:56.846Z,83.06
2022-09-17T01:24:49.021Z,83.01
2022-09-17T01:27:47.216Z,82.89
2022-09-17T01:30:20.926Z,82.93
2022-09-17T01:32:55.139Z,82.93
2022-09-17T01:35:27.812Z,82.69
2022-09-17T01:38:01.819Z,82.75
2022-09-17T01:40:33.830Z,83.07
2022-09-17T01:43:07.361Z,82.87
2022-09-17T01:45:37.828Z,82.63
2022-09-17T01:48:10.817Z,82.62
2022-09-17T01:50:41.393Z,82.61
2022-09-17T01:53:10.491Z,83.04
2022-09-17T01:55:40.462Z,82.72
2022-09-17T01:58:12.376Z,82.66
2022-09-17T02:00:42.446Z,82.62
2022-09-17T02:03:17.363Z,82.80
2022-09-17T02:05:49.603Z,82.88
2022-09-17T02:08:20.670Z,82.95
2022-09-17T02:10:50.991Z,82.70
2022-09-17T02:13:21.901Z,82.61
2022-09-17T02:15:55.486Z,82.68
2022-09-17T02:18:27.098Z,83.01
2022-09-17T02:21:02.320Z,82.60
2022-09-17T02:23:33.586Z,82.76
2022-09-17T02:26:06.946Z,83.07
2022-09-17T02:28:40.930Z,82.77
2022-09-17T02:31:07.917Z,82.85
2022-09-17T02:33:37.956Z,82.90
2022-09-17T02:36:05.248Z,82.83
2022-09-17T02:38:31.888Z,82.44
2022-09-17T02:41:06.426Z,82.57
2022-09-17T02:43:41.776Z,82.51
2022-09-17T02:46:27.434Z,82.28
2022-09-17T02:49:16.801Z,82.54
2022-09-17T02:51:52.377Z,82.73
2022-09-17T02:54:26.697Z,82.59
2022-09-17T02:57:05.026Z,82.63
2022-09-17T02:59:37.362Z,82.56
2022-09-17T03:02:07.462Z,82.50
2022-09-17T03:04:37.813Z,82.37
2022-09-17T03:07:07.083Z,82.36
2022-09-17T03:09:33.678Z,82.20
2022-09-17T03:12:00.424Z,82.31
2022-09-17T03:14:27.015Z,82.18
2022-09-17T03:16:53.607Z,82.45
2022-09-17T03:19:20.183Z,82.08
2022-09-17T03:21:48.469Z,82.18
2022-09-17T03:24:15.069Z,81.81
2022-09-17T03:26:41.673Z,82.28
2022-09-17T03:29:08.247Z,82.49
2022-09-17T03:31:34.919Z,82.55
2022-09-17T03:34:01.555Z,82.24
2022-09-17T03:36:28.066Z,82.38
2022-09-17T03:38:56.647Z,82.25
2022-09-17T03:41:24.172Z,82.08
2022-09-17T03:43:50.846Z,82.11
2022-09-17T03:46:17.808Z,82.25
2022-09-17T03:48:44.503Z,82.13
2022-09-17T03:51:11.546Z,82.14
2022-09-17T03:53:38.130Z,82.04
2022-09-17T03:56:07.142Z,82.37
2022-09-17T03:58:34.283Z,82.21
2022-09-17T04:01:01.004Z,81.89
2022-09-17T04:03:28.321Z,82.33
2022-09-17T04:05:55.589Z,81.90
2022-09-17T04:08:22.543Z,81.71
2022-09-17T04:10:49.196Z,82.17
2022-09-17T04:13:17.543Z,81.82
2022-09-17T04:15:45.127Z,81.96
2022-09-17T04:18:12.388Z,82.03
2022-09-17T04:20:39.213Z,82.15
2022-09-17T04:23:05.972Z,81.79
2022-09-17T04:25:32.914Z,81.78
2022-09-17T04:27:59.584Z,81.85
2022-09-17T04:30:27.498Z,82.16
2022-09-17T04:32:54.021Z,81.82
2022-09-17T04:35:20.698Z,81.84
2022-09-17T04:37:52.376Z,81.89
2022-09-17T04:40:19.069Z,81.90
2022-09-17T04:42:45.682Z,81.90
2022-09-17T04:45:12.276Z,81.84
2022-09-17T04:47:40.769Z,81.88
2022-09-17T04:50:07.897Z,81.88
2022-09-17T04:52:34.417Z,82.07
2022-09-17T04:55:01.031Z,82.09
2022-09-17T04:57:27.689Z,82.40
2022-09-17T04:59:54.289Z,82.18
2022-09-17T05:02:20.938Z,82.38
2022-09-17T05:04:48.960Z,82.55
2022-09-17T05:07:15.785Z,82.47
2022-09-17T05:09:42.425Z,82.25
2022-09-17T05:12:08.977Z,82.62
2022-09-17T05:14:35.608Z,82.84
2022-09-17T05:17:02.283Z,83.00
2022-09-17T05:19:28.887Z,82.91
2022-09-17T05:21:56.785Z,83.09
2022-09-17T05:24:23.378Z,83.40
2022-09-17T05:26:49.905Z,83.65
2022-09-17T05:29:16.449Z,83.64
2022-09-17T05:31:43.045Z,83.88
2022-09-17T05:34:09.777Z,84.00
2022-09-17T05:36:36.431Z,84.18
2022-09-17T05:39:04.480Z,84.06
2022-09-17T05:41:31.035Z,84.50
2022-09-17T05:43:57.576Z,84.37
2022-09-17T05:46:24.319Z,83.86
2022-09-17T05:48:50.887Z,83.54
2022-09-17T05:51:17.439Z,83.86
2022-09-17T05:53:43.976Z,83.71
2022-09-17T05:56:11.907Z,83.89
2022-09-17T05:58:38.509Z,83.47
2022-09-17T06:01:05.344Z,83.85
2022-09-17T06:03:31.871Z,83.40
2022-09-17T06:06:00.173Z,83.61
2022-09-17T06:08:28.748Z,83.71
2022-09-17T06:10:59.005Z,83.23
2022-09-17T06:13:29.743Z,83.33
2022-09-17T06:15:56.591Z,82.98
2022-09-17T06:18:23.414Z,83.13
2022-09-17T06:20:54.018Z,82.79
2022-09-17T06:23:20.783Z,83.28
2022-09-17T06:25:52.148Z,83.00
2022-09-17T06:28:18.709Z,82.84
2022-09-17T06:30:46.711Z,82.44
2022-09-17T06:33:13.302Z,82.67
2022-09-17T06:35:40.015Z,82.30
2022-09-17T06:38:06.870Z,82.42
2022-09-17T06:40:33.658Z,82.11
2022-09-17T06:43:00.536Z,81.76
2022-09-17T06:45:27.852Z,80.75
2022-09-17T06:47:55.997Z,80.42
2022-09-17T06:50:22.614Z,81.07
2022-09-17T06:52:49.503Z,80.52
2022-09-17T06:55:17.126Z,79.66
2022-09-17T06:57:44.252Z,79.85
2022-09-17T07:00:12.663Z,78.74
2022-09-17T07:02:39.238Z,78.67
2022-09-17T07:05:08.188Z,78.30
2022-09-17T07:07:34.794Z,78.48
2022-09-17T07:10:01.417Z,78.48
2022-09-17T07:12:28.036Z,78.25
2022-09-17T07:14:54.627Z,78.87
2022-09-17T07:17:21.193Z,79.02
2022-09-17T07:19:47.779Z,78.54
2022-09-17T07:22:15.857Z,78.65
2022-09-17T07:24:42.455Z,78.34
2022-09-17T07:27:08.999Z,77.62
2022-09-17T07:29:35.581Z,77.73
2022-09-17T07:32:02.602Z,77.43
2022-09-17T07:34:29.157Z,77.39
2022-09-17T07:36:55.701Z,76.75
2022-09-17T07:39:23.746Z,77.30
2022-09-17T07:41:50.320Z,76.70
2022-09-17T07:44:16.858Z,76.07
2022-09-17T07:46:43.589Z,76.67
2022-09-17T07:49:10.195Z,76.85
2022-09-17T07:51:36.935Z,77.13
2022-09-17T07:54:03.598Z,76.14
2022-09-17T08:00:00.405Z,74.68
2022-09-17T08:02:27.090Z,75.09
2022-09-17T08:04:53.758Z,74.84
2022-09-17T08:07:20.404Z,73.68
2022-09-17T08:09:46.947Z,74.71
2022-09-17T08:12:13.543Z,74.26
2022-09-17T08:14:40.166Z,74.11
2022-09-17T08:17:08.389Z,74.67
2022-09-17T08:19:35.129Z,73.09
2022-09-17T08:22:01.933Z,70.98
2022-09-17T08:24:28.534Z,71.75
2022-09-17T08:26:55.176Z,72.17
2022-09-17T08:29:21.773Z,71.87
2022-09-17T08:31:48.356Z,71.48
2022-09-17T08:34:16.411Z,70.78
2022-09-17T08:36:43.106Z,71.33
2022-09-17T08:39:09.761Z,69.94
2022-09-17T08:41:46.910Z,70.25
2022-09-17T08:44:22.740Z,67.89
2022-09-17T08:46:51.959Z,68.44
2022-09-17T08:49:30.816Z,68.15
2022-09-17T08:52:19.582Z,68.83
2022-09-17T08:54:57.135Z,68.23
2022-09-17T08:57:35.564Z,68.41
2022-09-17T09:00:07.422Z,67.95
2022-09-17T09:02:49.877Z,66.57
2022-09-17T09:05:20.641Z,67.39
2022-09-17T09:07:52.265Z,67.83
2022-09-17T09:10:23.097Z,67.36
2022-09-17T09:12:51.389Z,67.62
2022-09-17T09:15:27.648Z,66.80
2022-09-17T09:17:54.780Z,66.66
2022-09-17T09:20:28.528Z,66.79
2022-09-17T09:22:55.329Z,65.57
2022-09-17T09:25:24.888Z,66.79
2022-09-17T09:28:00.896Z,66.78
2022-09-17T09:30:36.671Z,65.50
2022-09-17T09:33:11.442Z,67.09
2022-09-17T09:35:42.223Z,65.88
2022-09-17T09:38:18.368Z,66.43
2022-09-17T09:40:51.750Z,66.84
2022-09-17T09:43:22.177Z,64.96
2022-09-17T09:46:14.434Z,63.54
2022-09-17T09:48:52.653Z,63.59
2022-09-17T09:51:31.773Z,63.04
2022-09-17T09:54:12.625Z,63.27
2022-09-17T09:56:52.832Z,63.18
2022-09-17T09:59:19.818Z,62.98
2022-09-17T10:01:46.453Z,65.65
2022-09-17T10:04:19.861Z,64.82
2022-09-17T10:06:50.206Z,62.09
2022-09-17T10:09:18.180Z,61.71
2022-09-17T10:12:00.190Z,61.71
2022-09-17T10:14:29.248Z,60.45
2022-09-17T10:17:17.207Z,60.70
2022-09-17T10:19:44.853Z,60.72
2022-09-17T10:22:29.278Z,61.41
2022-09-17T10:24:59.063Z,61.82
2022-09-17T10:27:27.111Z,62.79
2022-09-17T10:30:03.573Z,61.27
2022-09-17T10:32:30.179Z,61.29
2022-09-17T10:35:06.882Z,62.05
2022-09-17T10:37:42.025Z,60.70
2022-09-17T10:40:35.630Z,60.57
2022-09-17T10:43:22.737Z,60.18
2022-09-17T10:45:58.730Z,58.96
2022-09-17T10:48:28.573Z,59.44
2022-09-17T10:50:56.773Z,59.67
2022-09-17T10:53:27.121Z,58.62
2022-09-17T10:56:05.904Z,57.11
2022-09-17T10:58:44.013Z,57.64
2022-09-17T11:01:23.239Z,57.67
2022-09-17T11:04:19.026Z,58.06
2022-09-17T11:07:00.689Z,58.11
2022-09-17T11:09:42.793Z,56.89
2022-09-17T11:12:22.558Z,58.33
2022-09-17T11:14:54.635Z,57.40
2022-09-17T11:17:35.772Z,55.49
2022-09-17T11:20:05.781Z,55.09
2022-09-17T11:22:47.613Z,54.71
2022-09-17T11:25:33.313Z,54.97
2022-09-17T11:28:13.447Z,56.21
2022-09-17T11:30:52.702Z,55.99
2022-09-17T11:33:42.816Z,53.88
2022-09-17T11:36:16.122Z,54.92
2022-09-17T11:38:47.932Z,54.56
2022-09-17T11:41:20.461Z,53.90
2022-09-17T11:43:52.314Z,54.70
2022-09-17T11:46:22.933Z,54.57
2022-09-17T11:48:54.580Z,54.21
2022-09-17T11:51:26.775Z,55.24
2022-09-17T11:53:59.634Z,56.46
2022-09-17T11:56:32.018Z,53.82
2022-09-17T11:59:04.510Z,52.99
2022-09-17T12:01:37.778Z,53.59
2022-09-17T12:04:25.032Z,54.59
2022-09-17T12:06:59.953Z,55.86
2022-09-17T12:09:32.783Z,56.40
2022-09-17T12:12:05.792Z,57.79
2022-09-17T12:14:44.474Z,56.83
2022-09-17T12:17:17.125Z,57.42
2022-09-17T12:19:47.918Z,56.79
2022-09-17T12:22:21.113Z,55.64
2022-09-17T12:24:50.602Z,55.92
2022-09-17T12:27:30.551Z,53.45
2022-09-17T12:30:08.628Z,52.96
2022-09-17T12:32:51.710Z,52.36
2022-09-17T12:35:59.709Z,52.26
2022-09-17T12:38:35.387Z,50.55
2022-09-17T12:41:10.884Z,49.98
2022-09-17T12:44:16.440Z,52.10
2022-09-17T12:47:04.043Z,51.24
2022-09-17T12:53:14.336Z,53.42
2022-09-17T12:55:58.045Z,52.23
2022-09-17T12:58:31.468Z,52.33
2022-09-17T13:01:03.999Z,53.53
2022-09-17T13:03:36.757Z,52.71
2022-09-17T13:06:23.629Z,52.56
2022-09-17T13:09:11.252Z,51.62
2022-09-17T13:12:02.918Z,51.32
2022-09-17T13:14:42.350Z,50.36
2022-09-17T13:17:19.244Z,49.26
2022-09-17T13:19:53.519Z,50.19
2022-09-17T13:22:22.872Z,50.59
2022-09-17T13:25:06.385Z,49.02
2022-09-17T13:27:33.817Z,50.04
2022-09-17T13:30:01.301Z,49.75
2022-09-17T13:32:47.260Z,48.55
2022-09-17T13:35:47.514Z,48.27
2022-09-17T13:38:14.245Z,49.35
2022-09-17T13:40:40.949Z,49.76
2022-09-17T13:43:10.291Z,48.47
2022-09-17T13:46:19.675Z,48.04
2022-09-17T13:48:56.320Z,48.13
2022-09-17T13:51:53.177Z,48.18
2022-09-17T13:54:22.560Z,49.48
2022-09-17T13:57:03.812Z,48.85
2022-09-17T13:59:30.660Z,48.43
2022-09-17T14:02:32.870Z,47.12
2022-09-17T14:05:40.937Z,46.34
2022-09-17T14:08:37.080Z,47.84
2022-09-17T14:11:36.051Z,48.81
2022-09-17T14:14:48.013Z,49.91
2022-09-17T14:17:50.838Z,50.02
2022-09-17T14:20:19.745Z,50.84
2022-09-17T14:22:55.111Z,50.41
2022-09-17T14:25:29.435Z,51.98
2022-09-17T14:27:59.863Z,49.86
2022-09-17T14:30:29.667Z,50.37
2022-09-17T14:33:03.990Z,49.41
2022-09-17T14:35:35.835Z,49.71
2022-09-17T14:38:05.975Z,50.54
2022-09-17T14:40:34.242Z,49.86
2022-09-17T14:43:02.917Z,48.33
2022-09-17T14:45:32.486Z,48.54
2022-09-17T14:48:28.179Z,48.77
2022-09-17T14:51:26.100Z,50.29
2022-09-17T14:54:19.903Z,50.26
2022-09-17T14:57:00.281Z,50.96
2022-09-17T14:59:43.417Z,51.05
2022-09-17T15:02:35.835Z,51.47
2022-09-17T15:05:17.061Z,51.63
2022-09-17T15:07:45.399Z,51.73
2022-09-17T15:10:15.481Z,51.58
2022-09-17T15:12:44.155Z,51.70
2022-09-17T15:15:18.938Z,51.50
2022-09-17T15:17:46.618Z,52.12
2022-09-17T15:20:18.308Z,52.67
2022-09-17T15:22:50.023Z,52.57
2022-09-17T15:25:21.644Z,52.65
2022-09-17T15:27:51.861Z,51.96
2022-09-17T15:30:20.123Z,51.90
2022-09-17T15:32:49.676Z,51.92
2022-09-17T15:35:22.523Z,52.81
2022-09-17T15:38:18.583Z,52.73
2022-09-17T15:40:40.349Z,53.14
2022-09-17T15:43:18.176Z,53.16
2022-09-17T15:45:45.042Z,53.75
2022-09-17T15:48:35.394Z,53.29
2022-09-17T15:51:03.492Z,52.80
2022-09-17T15:53:31.449Z,53.09
2022-09-17T15:56:06.101Z,53.40
2022-09-17T15:58:51.198Z,53.88
2022-09-17T16:01:51.005Z,54.24
2022-09-17T16:04:32.005Z,53.93
2022-09-17T16:07:23.680Z,54.61
2022-09-17T16:09:51.432Z,54.38
2022-09-17T16:12:19.584Z,54.89
2022-09-17T16:14:49.945Z,55.17
2022-09-17T16:17:25.503Z,55.76
2022-09-17T16:19:52.128Z,56.60
2022-09-17T16:22:18.715Z,56.56
2022-09-17T16:24:45.317Z,56.42
2022-09-17T16:27:16.416Z,57.41
2022-09-17T16:29:43.127Z,57.28
2022-09-17T16:32:11.416Z,57.86
2022-09-17T16:34:38.121Z,58.48
2022-09-17T16:37:04.791Z,58.37
2022-09-17T16:39:31.474Z,58.65
2022-09-17T16:41:58.068Z,58.93
2022-09-17T16:44:24.666Z,58.49
2022-09-17T16:46:51.325Z,58.32
2022-09-17T16:49:19.387Z,59.38
2022-09-17T16:51:46.028Z,59.08
2022-09-17T16:54:12.813Z,59.21
2022-09-17T16:56:39.444Z,59.84
2022-09-17T16:59:06.073Z,60.11
2022-09-17T17:01:32.630Z,59.67
2022-09-17T17:03:59.401Z,59.85
2022-09-17T17:06:27.432Z,60.00
2022-09-17T17:08:53.970Z,60.06
2022-09-17T17:11:21.659Z,61.01
2022-09-17T17:13:48.364Z,60.90
2022-09-17T17:16:15.634Z,61.39
2022-09-17T17:18:42.998Z,61.75
2022-09-17T17:21:12.846Z,62.13
2022-09-17T17:23:40.985Z,62.93
2022-09-17T17:26:07.701Z,63.43
2022-09-17T17:28:35.275Z,64.46
2022-09-17T17:31:02.147Z,64.41
2022-09-17T17:33:29.323Z,65.63
2022-09-17T17:36:00.397Z,65.36
2022-09-17T17:38:29.671Z,65.94
2022-09-17T17:41:05.643Z,66.20
2022-09-17T17:43:32.418Z,66.31
2022-09-17T17:45:59.069Z,65.65
2022-09-17T17:48:25.776Z,66.04
2022-09-17T17:50:56.560Z,66.07
2022-09-17T17:53:23.582Z,66.13
2022-09-17T17:56:00.541Z,66.20
2022-09-17T17:58:29.490Z,66.49
2022-09-17T18:00:56.580Z,66.69
2022-09-17T18:03:23.787Z,67.22
2022-09-17T18:05:51.307Z,67.55
2022-09-17T18:08:17.981Z,67.69
2022-09-17T18:10:51.607Z,67.90
2022-09-17T18:13:18.307Z,68.11
2022-09-17T18:15:52.353Z,69.08
2022-09-17T18:18:18.984Z,69.04
2022-09-17T18:20:45.605Z,69.09
2022-09-17T18:23:12.287Z,69.47
2022-09-17T18:25:38.912Z,69.53
2022-09-17T18:28:05.588Z,69.67
2022-09-17T18:30:32.290Z,70.45
2022-09-17T18:33:00.352Z,70.64
2022-09-17T18:35:26.940Z,71.03
2022-09-17T18:37:53.561Z,71.30
2022-09-17T18:40:20.216Z,71.28
2022-09-17T18:42:48.535Z,71.90
2022-09-17T18:45:15.474Z,72.00
2022-09-17T18:47:42.133Z,72.18
2022-09-17T18:50:10.260Z,72.49
2022-09-17T18:52:36.890Z,72.26
2022-09-17T18:55:03.699Z,72.84
2022-09-17T18:57:30.318Z,72.96
2022-09-17T18:59:57.210Z,73.02
2022-09-17T19:02:24.214Z,73.06
2022-09-17T19:04:51.075Z,73.39
2022-09-17T19:07:19.541Z,73.48
2022-09-17T19:09:46.277Z,73.63
2022-09-17T19:12:13.170Z,73.63
2022-09-17T19:14:40.077Z,73.54
2022-09-17T19:17:06.968Z,73.87
2022-09-17T19:19:33.790Z,73.99
2022-09-17T19:22:00.417Z,73.79
2022-09-17T19:24:28.557Z,74.10
2022-09-17T19:26:55.233Z,73.98
2022-09-17T19:29:21.882Z,74.04
2022-09-17T19:31:48.714Z,74.10
2022-09-17T19:34:15.446Z,74.05
2022-09-17T19:36:42.035Z,74.24
2022-09-17T19:39:08.795Z,74.68
2022-09-17T19:41:36.887Z,74.58
2022-09-17T19:44:03.645Z,74.66
2022-09-17T19:46:30.400Z,74.66
2022-09-17T19:48:57.518Z,74.50
2022-09-17T19:51:25.878Z,74.38
2022-09-17T19:53:52.849Z,74.91
2022-09-17T19:56:21.933Z,74.63
2022-09-17T19:58:50.274Z,74.62
2022-09-17T20:01:17.540Z,75.16
2022-09-17T20:03:45.105Z,75.06
2022-09-17T20:06:13.828Z,75.14
2022-09-17T20:08:46.848Z,75.18
2022-09-17T20:11:14.770Z,75.03
2022-09-17T20:13:41.402Z,75.21
2022-09-17T20:16:11.671Z,75.19
2022-09-17T20:18:38.336Z,75.58
2022-09-17T20:21:08.612Z,75.53
2022-09-17T20:23:35.377Z,75.64
2022-09-17T20:26:02.152Z,75.53
2022-09-17T20:28:29.012Z,75.96
2022-09-17T20:31:03.315Z,75.89
2022-09-17T20:33:31.457Z,75.92
2022-09-17T20:35:59.224Z,75.89
2022-09-17T20:39:09.941Z,75.90
2022-09-17T20:41:14.280Z,76.13
2022-09-17T20:43:42.718Z,76.01
2022-09-17T20:46:10.755Z,76.58
2022-09-17T20:48:39.573Z,76.37
2022-09-17T20:51:07.959Z,76.48
2022-09-17T20:53:36.320Z,76.72
2022-09-17T20:56:05.061Z,76.48
2022-09-17T20:58:33.439Z,76.42
2022-09-17T21:01:06.325Z,76.56
2022-09-17T21:03:32.918Z,76.60
2022-09-17T21:06:01.160Z,76.95
2022-09-17T21:08:28.335Z,76.74
2022-09-17T21:10:54.972Z,76.98
2022-09-17T21:13:21.641Z,77.12
2022-09-17T21:15:55.598Z,77.07
2022-09-17T21:18:22.173Z,76.88
2022-09-17T21:20:48.779Z,77.23
2022-09-17T21:23:17.064Z,77.19
2022-09-17T21:25:43.673Z,77.45
2022-09-17T21:28:10.239Z,77.57
2022-09-17T21:30:36.879Z,77.54
2022-09-17T21:33:03.712Z,77.83
2022-09-17T21:35:30.287Z,77.95
2022-09-17T21:37:56.802Z,77.91
2022-09-17T21:40:24.939Z,77.82
2022-09-17T21:42:51.617Z,78.20
2022-09-17T21:45:18.210Z,78.11
2022-09-17T21:47:44.831Z,78.39
2022-09-17T21:50:11.445Z,78.30
2022-09-17T21:52:38.039Z,78.52
2022-09-17T21:55:05.460Z,78.94
2022-09-17T21:57:33.360Z,78.92
2022-09-17T21:59:59.926Z,79.27
2022-09-17T22:02:26.546Z,78.96
2022-09-17T22:04:53.044Z,79.68
2022-09-17T22:07:19.628Z,79.51
2022-09-17T22:09:46.150Z,79.87
2022-09-17T22:12:12.799Z,79.80
2022-09-17T22:14:40.800Z,80.14
2022-09-17T22:17:07.488Z,79.92
2022-09-17T22:19:34.383Z,79.97
2022-09-17T22:22:01.039Z,79.86
2022-09-17T22:24:27.904Z,79.81
2022-09-17T22:26:57.941Z,79.79
2022-09-17T22:29:26.321Z,80.02
2022-09-17T22:31:54.224Z,80.13
2022-09-17T22:34:22.543Z,80.34
2022-09-17T22:36:49.127Z,80.27
2022-09-17T22:39:15.738Z,80.52
2022-09-17T22:41:42.578Z,80.48
2022-09-17T22:44:12.467Z,80.22
2022-09-17T22:46:39.746Z,80.14
2022-09-17T22:49:08.977Z,80.25
2022-09-17T22:51:36.052Z,80.30
2022-09-17T22:54:02.909Z,80.66
2022-09-17T22:56:29.878Z,80.48
2022-09-17T22:58:57.581Z,80.71
2022-09-17T23:01:26.478Z,81.07
2022-09-17T23:03:53.188Z,81.24
2022-09-17T23:06:23.499Z,81.27
2022-09-17T23:08:50.192Z,81.30
2022-09-17T23:11:19.160Z,81.56
2022-09-17T23:13:46.458Z,81.36
2022-09-17T23:16:13.729Z,81.89
2022-09-17T23:18:40.686Z,82.18
2022-09-17T23:21:09.855Z,82.30
2022-09-17T23:23:37.829Z,82.69
2022-09-17T23:26:06.339Z,82.60
2022-09-17T23:28:34.610Z,82.65
2022-09-17T23:31:06.670Z,82.66
2022-09-17T23:33:34.048Z,82.97
2022-09-17T23:36:03.844Z,83.19
2022-09-17T23:38:30.534Z,83.15
2022-09-17T23:41:07.501Z,83.24
2022-09-17T23:43:34.126Z,83.42
2022-09-17T23:46:00.773Z,83.23
2022-09-17T23:48:27.512Z,83.51
2022-09-17T23:50:54.083Z,83.46
2022-09-17T23:53:20.861Z,83.43
2022-09-17T23:55:48.274Z,83.34
2022-09-17T23:58:16.637Z,83.17
